createdAt,value
2019-04-25T00:02:40.798Z,15.53
2019-04-25T00:05:44.765Z,15.43
2019-04-25T00:08:47.585Z,15.76
2019-04-25T00:11:51.995Z,15.36
2019-04-25T00:14:55.364Z,15.34
2019-04-25T00:17:58.251Z,15.00
2019-04-25T00:21:08.805Z,15.25
2019-04-25T00:24:29.701Z,15.64
2019-04-25T00:27:33.093Z,15.77
2019-04-25T00:30:36.055Z,15.64
2019-04-25T00:33:39.026Z,15.39
2019-04-25T00:36:43.478Z,15.36
2019-04-25T00:39:47.412Z,15.20
2019-04-25T00:42:52.223Z,15.21
2019-04-25T00:45:55.330Z,15.20
2019-04-25T00:48:58.985Z,15.64
2019-04-25T00:52:02.121Z,15.66
2019-04-25T00:55:05.134Z,15.06
2019-04-25T00:58:14.163Z,15.16
2019-04-25T01:01:45.597Z,15.09
2019-04-25T01:04:48.106Z,15.15
2019-04-25T01:07:52.444Z,15.28
2019-04-25T01:10:56.406Z,15.24
2019-04-25T01:13:59.761Z,15.03
2019-04-25T01:17:02.601Z,15.05
2019-04-25T01:20:06.269Z,15.03
2019-04-25T01:23:09.173Z,15.03
2019-04-25T01:26:13.256Z,15.21
2019-04-25T01:29:16.579Z,15.35
2019-04-25T01:32:27.259Z,15.24
2019-04-25T01:35:47.376Z,15.61
2019-04-25T01:39:01.654Z,15.25
2019-04-25T01:42:24.859Z,15.32
2019-04-25T01:45:30.204Z,15.10
2019-04-25T01:48:33.429Z,15.35
2019-04-25T01:51:36.651Z,15.20
2019-04-25T01:54:39.517Z,15.20
2019-04-25T01:57:43.724Z,15.24
2019-04-25T02:00:49.041Z,15.42
2019-04-25T02:03:53.525Z,14.99
2019-04-25T02:06:57.029Z,14.51
2019-04-25T02:10:00.137Z,14.65
2019-04-25T02:13:05.964Z,14.89
2019-04-25T02:16:09.336Z,15.20
2019-04-25T02:19:12.189Z,15.15
2019-04-25T02:22:15.762Z,14.89
2019-04-25T02:25:18.961Z,15.13
2019-04-25T02:28:23.707Z,14.48
2019-04-25T02:31:27.553Z,14.38
2019-04-25T02:34:30.397Z,14.54
2019-04-25T02:37:35.194Z,14.74
2019-04-25T02:40:38.026Z,14.62
2019-04-25T02:43:40.908Z,14.73
2019-04-25T02:47:09.162Z,15.08
2019-04-25T02:50:28.577Z,14.72
2019-04-25T02:53:36.523Z,14.90
2019-04-25T02:56:39.213Z,14.76
2019-04-25T02:59:42.160Z,14.90
2019-04-25T03:02:45.040Z,14.70
2019-04-25T03:05:48.723Z,14.96
2019-04-25T03:08:54.043Z,15.01
2019-04-25T03:11:58.221Z,14.98
2019-04-25T03:15:02.077Z,14.84
2019-04-25T03:18:11.046Z,14.66
2019-04-25T03:21:18.554Z,14.66
2019-04-25T03:24:21.720Z,14.90
2019-04-25T03:27:25.317Z,14.61
2019-04-25T03:30:28.804Z,14.58
2019-04-25T03:33:31.700Z,14.53
2019-04-25T03:36:34.572Z,14.68
2019-04-25T03:39:37.776Z,14.32
2019-04-25T03:42:40.652Z,14.47
2019-04-25T03:45:45.269Z,14.49
2019-04-25T03:48:49.721Z,14.69
2019-04-25T03:51:53.817Z,14.73
2019-04-25T03:54:56.900Z,14.72
2019-04-25T03:57:59.968Z,14.44
2019-04-25T04:01:05.952Z,14.79
2019-04-25T04:04:09.063Z,14.62
2019-04-25T04:07:12.730Z,14.42
2019-04-25T04:10:17.076Z,14.22
2019-04-25T04:13:20.424Z,14.35
2019-04-25T04:16:27.078Z,14.54
2019-04-25T04:19:33.968Z,14.53
2019-04-25T04:22:40.629Z,14.37
2019-04-25T04:25:43.497Z,14.69
2019-04-25T04:28:46.769Z,14.75
2019-04-25T04:31:49.622Z,14.60
2019-04-25T04:34:53.674Z,14.87
2019-04-25T04:37:56.804Z,14.48
2019-04-25T04:40:59.988Z,14.60
2019-04-25T04:44:04.169Z,13.95
2019-04-25T04:47:08.466Z,14.41
2019-04-25T04:50:12.823Z,14.30
2019-04-25T04:53:17.196Z,14.55
2019-04-25T04:56:20.198Z,14.48
2019-04-25T04:59:24.822Z,14.12
2019-04-25T05:02:53.404Z,14.29
2019-04-25T05:06:04.128Z,14.44
2019-04-25T05:09:29.341Z,14.33
2019-04-25T05:12:33.958Z,14.50
2019-04-25T05:15:37.255Z,14.67
2019-04-25T05:18:40.869Z,14.52
2019-04-25T05:21:45.637Z,14.31
2019-04-25T05:24:49.017Z,14.65
2019-04-25T05:28:00.712Z,14.28
2019-04-25T05:31:15.405Z,14.47
2019-04-25T05:34:18.311Z,14.48
2019-04-25T05:37:21.875Z,14.41
2019-04-25T05:40:26.334Z,14.18
2019-04-25T05:43:29.249Z,14.48
2019-04-25T05:46:32.111Z,14.47
2019-04-25T05:49:35.267Z,14.26
2019-04-25T05:52:38.505Z,14.55
2019-04-25T05:55:41.408Z,14.54
2019-04-25T05:58:44.264Z,14.54
2019-04-25T06:01:47.453Z,14.58
2019-04-25T06:04:50.312Z,14.63
2019-04-25T06:07:54.405Z,14.58
2019-04-25T06:11:04.466Z,14.67
2019-04-25T06:14:09.421Z,14.85
2019-04-25T06:17:15.771Z,14.85
2019-04-25T06:20:20.104Z,14.67
2019-04-25T06:23:45.771Z,14.58
2019-04-25T06:27:15.616Z,14.71
2019-04-25T06:30:25.971Z,14.73
2019-04-25T06:33:29.711Z,14.90
2019-04-25T06:36:35.208Z,14.97
2019-04-25T06:39:37.796Z,15.02
2019-04-25T06:42:40.661Z,14.99
2019-04-25T06:46:03.857Z,15.06
2019-04-25T06:49:15.102Z,15.03
2019-04-25T06:52:18.320Z,14.97
2019-04-25T06:55:22.865Z,15.25
2019-04-25T06:58:27.568Z,15.19
2019-04-25T07:01:31.557Z,15.24
2019-04-25T07:04:34.874Z,15.32
2019-04-25T07:07:37.927Z,15.35
2019-04-25T07:10:41.149Z,15.34
2019-04-25T07:13:44.039Z,15.44
2019-04-25T07:16:46.892Z,15.40
2019-04-25T07:19:50.140Z,15.47
2019-04-25T07:22:53.769Z,15.56
2019-04-25T07:26:09.554Z,15.60
2019-04-25T07:29:34.333Z,15.76
2019-04-25T07:32:44.777Z,15.83
2019-04-25T07:35:48.904Z,15.79
2019-04-25T07:39:05.482Z,15.49
2019-04-25T07:41:57.074Z,15.70
2019-04-25T07:45:00.397Z,15.89
2019-04-25T07:48:04.137Z,16.00
2019-04-25T07:51:07.342Z,15.97
2019-04-25T07:54:10.206Z,16.03
2019-04-25T07:57:14.190Z,15.93
2019-04-25T08:00:17.933Z,16.08
2019-04-25T08:03:21.109Z,16.01
2019-04-25T08:06:24.269Z,16.40
2019-04-25T08:09:28.268Z,16.42
2019-04-25T08:12:32.528Z,16.59
2019-04-25T08:15:46.201Z,16.46
2019-04-25T08:18:49.861Z,16.63
2019-04-25T08:21:54.790Z,16.37
2019-04-25T08:24:57.661Z,16.13
2019-04-25T08:28:00.668Z,16.18
2019-04-25T08:31:03.806Z,16.06
2019-04-25T08:34:06.693Z,16.18
2019-04-25T08:37:18.060Z,16.34
2019-04-25T08:40:17.172Z,16.28
2019-04-25T08:43:20.256Z,16.18
2019-04-25T08:46:25.256Z,16.12
2019-04-25T08:49:50.884Z,16.19
2019-04-25T08:52:54.389Z,16.16
2019-04-25T08:56:05.975Z,16.23
2019-04-25T08:59:36.003Z,16.28
2019-04-25T09:02:52.099Z,16.34
2019-04-25T09:05:56.951Z,16.40
2019-04-25T09:08:59.938Z,16.20
2019-04-25T09:12:04.178Z,16.22
2019-04-25T09:15:07.870Z,16.24
2019-04-25T09:18:10.728Z,16.38
2019-04-25T09:21:13.824Z,16.53
2019-04-25T09:24:16.811Z,16.46
2019-04-25T09:27:20.457Z,16.48
2019-04-25T09:30:24.101Z,16.41
2019-04-25T09:33:27.096Z,16.54
2019-04-25T09:36:29.969Z,16.61
2019-04-25T09:39:48.445Z,16.77
2019-04-25T09:42:51.300Z,16.86
2019-04-25T09:46:08.599Z,16.96
2019-04-25T09:49:17.902Z,17.88
2019-04-25T09:52:22.190Z,18.04
2019-04-25T09:55:31.299Z,17.71
2019-04-25T09:58:37.959Z,17.38
2019-04-25T10:01:43.968Z,17.47
2019-04-25T10:04:48.267Z,17.28
2019-04-25T10:07:51.148Z,17.14
2019-04-25T10:10:55.462Z,17.14
2019-04-25T10:14:26.934Z,17.20
2019-04-25T10:17:29.804Z,17.25
2019-04-25T10:20:33.357Z,17.39
2019-04-25T10:23:37.440Z,17.88
2019-04-25T10:26:41.648Z,17.86
2019-04-25T10:29:52.773Z,18.28
2019-04-25T10:32:50.630Z,18.22
2019-04-25T10:35:59.454Z,18.59
2019-04-25T10:39:07.268Z,18.91
2019-04-25T10:42:03.857Z,18.70
2019-04-25T10:45:20.252Z,18.73
2019-04-25T10:48:13.873Z,19.07
2019-04-25T10:51:17.072Z,19.76
2019-04-25T10:54:20.992Z,19.57
2019-04-25T10:57:26.313Z,18.91
2019-04-25T11:00:35.266Z,19.61
2019-04-25T11:04:07.793Z,20.48
2019-04-25T11:07:10.748Z,19.46
2019-04-25T11:10:14.157Z,20.21
2019-04-25T11:13:17.159Z,20.63
2019-04-25T11:16:20.030Z,20.85
2019-04-25T11:19:23.880Z,20.63
2019-04-25T11:22:27.196Z,20.27
2019-04-25T11:25:30.379Z,20.43
2019-04-25T11:28:34.060Z,20.72
2019-04-25T11:31:46.999Z,19.96
2019-04-25T11:34:50.752Z,19.77
2019-04-25T11:37:56.870Z,19.65
2019-04-25T11:41:08.235Z,19.46
2019-04-25T11:44:11.108Z,19.65
2019-04-25T11:47:15.383Z,19.36
2019-04-25T11:50:18.746Z,19.16
2019-04-25T11:53:24.790Z,19.13
2019-04-25T11:56:27.038Z,19.13
2019-04-25T11:59:29.897Z,19.30
2019-04-25T12:02:34.319Z,19.25
2019-04-25T12:05:37.712Z,19.31
2019-04-25T12:08:40.572Z,19.20
2019-04-25T12:11:45.817Z,19.34
2019-04-25T12:14:49.566Z,19.77
2019-04-25T12:17:54.535Z,19.83
2019-04-25T12:20:58.165Z,19.81
2019-04-25T12:24:03.696Z,20.05
2019-04-25T12:27:06.190Z,19.74
2019-04-25T12:30:09.366Z,20.32
2019-04-25T12:33:20.340Z,20.38
2019-04-25T12:36:17.031Z,21.24
2019-04-25T12:39:20.005Z,21.23
2019-04-25T12:42:24.216Z,21.48
2019-04-25T12:45:39.714Z,21.40
2019-04-25T12:48:43.704Z,22.25
2019-04-25T12:51:46.570Z,22.69
2019-04-25T12:54:49.794Z,22.38
2019-04-25T12:57:54.875Z,22.11
2019-04-25T13:00:59.920Z,22.74
2019-04-25T13:04:04.143Z,22.38
2019-04-25T13:07:08.874Z,22.97
2019-04-25T13:10:13.140Z,21.62
2019-04-25T13:13:17.593Z,21.83
2019-04-25T13:16:20.648Z,21.42
2019-04-25T13:19:26.035Z,21.10
2019-04-25T13:22:28.743Z,21.61
2019-04-25T13:25:31.629Z,21.85
2019-04-25T13:28:48.925Z,21.58
2019-04-25T13:32:13.298Z,21.96
2019-04-25T13:35:23.945Z,21.22
2019-04-25T13:38:26.914Z,21.41
2019-04-25T13:41:29.828Z,22.38
2019-04-25T13:44:34.182Z,22.88
2019-04-25T13:47:37.787Z,22.26
2019-04-25T13:50:40.794Z,22.88
2019-04-25T13:53:43.676Z,23.27
2019-04-25T13:56:46.573Z,24.01
2019-04-25T13:59:49.483Z,22.77
2019-04-25T14:02:52.667Z,22.05
2019-04-25T14:05:55.542Z,21.97
2019-04-25T14:08:58.435Z,21.64
2019-04-25T14:12:01.632Z,21.52
2019-04-25T14:15:08.598Z,22.08
2019-04-25T14:18:20.564Z,22.40
2019-04-25T14:21:24.893Z,23.15
2019-04-25T14:24:30.682Z,22.56
2019-04-25T14:27:34.031Z,23.43
2019-04-25T14:30:37.582Z,23.42
2019-04-25T14:33:40.887Z,23.26
2019-04-25T14:36:44.311Z,24.53
2019-04-25T14:39:47.698Z,24.60
2019-04-25T14:42:51.675Z,23.67
2019-04-25T14:45:56.186Z,23.21
2019-04-25T14:48:59.387Z,23.60
2019-04-25T14:52:02.264Z,23.99
2019-04-25T14:55:27.402Z,23.35
2019-04-25T14:58:31.279Z,22.77
2019-04-25T15:01:44.526Z,22.42
2019-04-25T15:04:38.930Z,22.36
2019-04-25T15:07:43.006Z,21.84
2019-04-25T15:10:48.345Z,21.73
2019-04-25T15:13:51.084Z,21.75
2019-04-25T15:16:54.364Z,21.64
2019-04-25T15:19:58.190Z,21.64
2019-04-25T15:23:01.080Z,21.55
2019-04-25T15:26:03.986Z,21.35
2019-04-25T15:29:07.160Z,21.48
2019-04-25T15:32:13.328Z,21.54
2019-04-25T15:35:18.138Z,21.31
2019-04-25T15:38:31.384Z,21.37
2019-04-25T15:41:43.528Z,21.43
2019-04-25T15:45:06.965Z,21.36
2019-04-25T15:48:09.848Z,21.32
2019-04-25T15:51:13.123Z,21.34
2019-04-25T15:54:16.014Z,21.17
2019-04-25T15:57:18.897Z,21.25
2019-04-25T16:00:30.650Z,21.15
2019-04-25T16:03:33.614Z,21.25
2019-04-25T16:06:36.838Z,21.34
2019-04-25T16:09:40.177Z,21.11
2019-04-25T16:12:43.077Z,21.22
2019-04-25T16:15:46.052Z,21.33
2019-04-25T16:18:48.927Z,21.38
2019-04-25T16:21:52.112Z,21.36
2019-04-25T16:24:55.078Z,21.25
2019-04-25T16:27:58.706Z,21.29
2019-04-25T16:31:04.261Z,21.36
2019-04-25T16:34:06.995Z,21.19
2019-04-25T16:37:09.826Z,21.39
2019-04-25T16:40:14.534Z,21.19
2019-04-25T16:43:21.918Z,21.32
2019-04-25T16:46:26.068Z,21.23
2019-04-25T16:49:29.999Z,21.15
2019-04-25T16:52:33.834Z,21.14
2019-04-25T16:55:36.791Z,21.12
2019-04-25T16:58:39.659Z,21.08
2019-04-25T17:01:42.810Z,20.95
2019-04-25T17:04:45.807Z,20.94
2019-04-25T17:07:48.692Z,20.89
2019-04-25T17:10:51.874Z,20.95
2019-04-25T17:14:14.345Z,20.90
2019-04-25T17:17:29.167Z,20.79
2019-04-25T17:20:35.604Z,20.71
2019-04-25T17:23:39.657Z,20.73
2019-04-25T17:26:42.561Z,20.78
2019-04-25T17:29:46.213Z,20.73
2019-04-25T17:33:11.474Z,20.63
2019-04-25T17:36:23.334Z,20.66
2019-04-25T17:39:45.806Z,20.52
2019-04-25T17:42:48.688Z,20.52
2019-04-25T17:45:51.583Z,20.49
2019-04-25T17:48:54.478Z,20.46
2019-04-25T17:51:57.716Z,20.30
2019-04-25T17:55:01.226Z,20.25
2019-04-25T17:58:04.093Z,20.02
2019-04-25T18:01:08.465Z,19.81
2019-04-25T18:04:11.338Z,19.69
2019-04-25T18:07:14.567Z,19.72
2019-04-25T18:10:17.862Z,19.81
2019-04-25T18:13:21.380Z,19.67
2019-04-25T18:16:30.052Z,19.63
2019-04-25T18:19:40.562Z,19.49
2019-04-25T18:23:12.289Z,19.68
2019-04-25T18:26:21.829Z,19.55
2019-04-25T18:29:24.738Z,19.54
2019-04-25T18:32:31.956Z,19.60
2019-04-25T18:35:39.157Z,19.61
2019-04-25T18:39:11.980Z,19.65
2019-04-25T18:42:44.556Z,19.24
2019-04-25T18:45:51.908Z,19.38
2019-04-25T18:48:55.116Z,19.26
2019-04-25T18:52:04.075Z,19.10
2019-04-25T18:55:14.512Z,19.02
2019-04-25T18:58:39.848Z,19.00
2019-04-25T19:01:53.741Z,18.71
2019-04-25T19:05:20.285Z,18.77
2019-04-25T19:08:23.178Z,18.78
2019-04-25T19:11:26.213Z,18.91
2019-04-25T19:14:29.098Z,18.71
2019-04-25T19:17:31.990Z,18.56
2019-04-25T19:20:35.377Z,18.58
2019-04-25T19:23:39.398Z,18.75
2019-04-25T19:26:44.660Z,18.72
2019-04-25T19:29:47.851Z,18.54
2019-04-25T19:32:51.587Z,18.59
2019-04-25T19:35:54.968Z,18.47
2019-04-25T19:38:58.681Z,18.29
2019-04-25T19:42:20.550Z,18.54
2019-04-25T19:45:23.488Z,18.39
2019-04-25T19:48:28.229Z,18.33
2019-04-25T19:51:31.099Z,18.39
2019-04-25T19:54:34.440Z,18.41
2019-04-25T19:57:37.314Z,17.97
2019-04-25T20:00:40.384Z,18.18
2019-04-25T20:04:00.049Z,18.21
2019-04-25T20:07:37.610Z,17.86
2019-04-25T20:10:48.967Z,17.73
2019-04-25T20:13:53.411Z,17.35
2019-04-25T20:16:56.340Z,17.63
2019-04-25T20:19:59.236Z,17.68
2019-04-25T20:23:02.136Z,17.80
2019-04-25T20:26:05.350Z,17.58
2019-04-25T20:29:08.571Z,17.62
2019-04-25T20:32:11.444Z,17.61
2019-04-25T20:35:14.754Z,17.66
2019-04-25T20:38:18.015Z,17.59
2019-04-25T20:41:21.191Z,17.88
2019-04-25T20:44:24.469Z,17.97
2019-04-25T20:47:28.766Z,17.49
2019-04-25T20:50:32.039Z,17.65
2019-04-25T20:53:35.498Z,17.22
2019-04-25T20:56:38.646Z,17.51
2019-04-25T20:59:41.595Z,17.74
2019-04-25T21:02:44.548Z,17.74
2019-04-25T21:05:50.960Z,17.71
2019-04-25T21:08:53.933Z,17.74
2019-04-25T21:11:58.081Z,17.24
2019-04-25T21:15:15.422Z,17.14
2019-04-25T21:18:32.593Z,17.55
2019-04-25T21:21:36.563Z,17.54
2019-04-25T21:24:39.451Z,16.74
2019-04-25T21:27:42.321Z,16.83
2019-04-25T21:30:45.192Z,16.97
2019-04-25T21:33:48.099Z,17.19
2019-04-25T21:36:53.268Z,17.21
2019-04-25T21:40:18.905Z,17.21
2019-04-25T21:43:24.552Z,17.47
2019-04-25T21:46:27.798Z,17.19
2019-04-25T21:49:30.974Z,17.17
2019-04-25T21:52:33.836Z,17.23
2019-04-25T21:55:37.011Z,17.15
2019-04-25T21:58:40.207Z,17.19
2019-04-25T22:01:43.807Z,17.26
2019-04-25T22:04:47.310Z,16.95
2019-04-25T22:07:50.582Z,16.77
2019-04-25T22:10:55.793Z,17.10
2019-04-25T22:13:59.532Z,17.12
2019-04-25T22:17:03.893Z,16.97
2019-04-25T22:20:07.325Z,17.22
2019-04-25T22:23:10.468Z,17.00
2019-04-25T22:26:13.760Z,17.03
2019-04-25T22:29:17.240Z,16.55
2019-04-25T22:32:30.138Z,16.92
2019-04-25T22:35:38.812Z,16.40
2019-04-25T22:38:41.992Z,16.68
2019-04-25T22:41:46.851Z,16.63
2019-04-25T22:44:49.772Z,17.07
2019-04-25T22:47:53.045Z,16.97
2019-04-25T22:50:56.107Z,16.94
2019-04-25T22:53:58.976Z,16.79
2019-04-25T22:57:02.642Z,16.55
2019-04-25T23:00:09.306Z,16.97
2019-04-25T23:03:24.976Z,16.82
2019-04-25T23:06:28.194Z,16.93
2019-04-25T23:09:33.415Z,16.73
2019-04-25T23:12:37.009Z,16.51
2019-04-25T23:15:40.262Z,16.82
2019-04-25T23:18:43.434Z,17.03
2019-04-25T23:21:46.689Z,16.80
2019-04-25T23:24:57.997Z,16.65
2019-04-25T23:28:17.414Z,16.87
2019-04-25T23:31:25.066Z,16.52
2019-04-25T23:34:28.770Z,16.67
2019-04-25T23:37:31.971Z,16.34
2019-04-25T23:40:35.185Z,16.51
2019-04-25T23:43:38.724Z,16.51
2019-04-25T23:46:41.888Z,16.40
2019-04-25T23:49:45.085Z,16.22
2019-04-25T23:52:49.002Z,16.50
2019-04-25T23:55:53.652Z,16.28
2019-04-25T23:58:56.612Z,16.32
